sensor_id;sensor_type;location;lat;lon;timestamp;P1;durP1;ratioP1;P2;durP2;ratioP2
40695;SDS011;40425;51.102;17.208;2023-05-07T00:03:12;3.80;;;3.03;;
40695;SDS011;40425;51.102;17.208;2023-05-07T00:08:13;3.60;;;2.67;;
40695;SDS011;40425;51.102;17.208;2023-05-07T00:13:15;5.63;;;2.83;;
40695;SDS011;40425;51.102;17.208;2023-05-07T00:18:16;4.00;;;2.50;;
40695;SDS011;40425;51.102;17.208;2023-05-07T00:23:21;3.77;;;2.80;;
40695;SDS011;40425;51.102;17.208;2023-05-07T00:28:22;5.03;;;2.60;;
40695;SDS011;40425;51.102;17.208;2023-05-07T00:33:23;4.30;;;2.97;;
40695;SDS011;40425;51.102;17.208;2023-05-07T00:38:23;3.83;;;2.97;;
40695;SDS011;40425;51.102;17.208;2023-05-07T00:43:24;4.10;;;3.10;;
40695;SDS011;40425;51.102;17.208;2023-05-07T00:48:25;6.20;;;3.13;;
40695;SDS011;40425;51.102;17.208;2023-05-07T00:53:26;3.50;;;3.03;;
40695;SDS011;40425;51.102;17.208;2023-05-07T00:58:28;4.13;;;2.47;;
40695;SDS011;40425;51.102;17.208;2023-05-07T01:03:30;7.50;;;3.50;;
40695;SDS011;40425;51.102;17.208;2023-05-07T01:08:31;4.60;;;3.73;;
40695;SDS011;40425;51.102;17.208;2023-05-07T01:13:33;4.10;;;2.90;;
40695;SDS011;40425;51.102;17.208;2023-05-07T01:18:35;9.87;;;3.90;;
40695;SDS011;40425;51.102;17.208;2023-05-07T01:23:35;6.22;;;3.78;;
40695;SDS011;40425;51.102;17.208;2023-05-07T01:28:37;4.40;;;4.00;;
40695;SDS011;40425;51.102;17.208;2023-05-07T01:33:38;5.80;;;3.80;;
40695;SDS011;40425;51.102;17.208;2023-05-07T01:38:43;6.87;;;4.80;;
40695;SDS011;40425;51.102;17.208;2023-05-07T01:43:44;5.13;;;4.33;;
40695;SDS011;40425;51.102;17.208;2023-05-07T01:48:47;5.90;;;3.20;;
40695;SDS011;40425;51.102;17.208;2023-05-07T01:53:49;3.87;;;3.27;;
40695;SDS011;40425;51.102;17.208;2023-05-07T01:58:51;10.43;;;3.50;;
40695;SDS011;40425;51.102;17.208;2023-05-07T02:03:52;4.67;;;2.70;;
40695;SDS011;40425;51.102;17.208;2023-05-07T02:08:54;4.27;;;3.20;;
40695;SDS011;40425;51.102;17.208;2023-05-07T02:13:54;6.10;;;2.90;;
40695;SDS011;40425;51.102;17.208;2023-05-07T02:18:55;4.17;;;3.17;;
40695;SDS011;40425;51.102;17.208;2023-05-07T02:23:56;4.67;;;2.70;;
40695;SDS011;40425;51.102;17.208;2023-05-07T02:28:57;4.50;;;2.63;;
40695;SDS011;40425;51.102;17.208;2023-05-07T02:33:58;4.97;;;2.77;;
40695;SDS011;40425;51.102;17.208;2023-05-07T02:38:59;4.57;;;2.43;;
40695;SDS011;40425;51.102;17.208;2023-05-07T02:44:00;4.17;;;3.23;;
40695;SDS011;40425;51.102;17.208;2023-05-07T02:49:01;5.03;;;3.07;;
40695;SDS011;40425;51.102;17.208;2023-05-07T02:54:02;6.37;;;3.80;;
40695;SDS011;40425;51.102;17.208;2023-05-07T02:59:03;5.90;;;2.97;;
40695;SDS011;40425;51.102;17.208;2023-05-07T03:04:04;5.27;;;3.53;;
40695;SDS011;40425;51.102;17.208;2023-05-07T03:09:04;8.30;;;4.53;;
40695;SDS011;40425;51.102;17.208;2023-05-07T03:14:05;5.80;;;4.20;;
40695;SDS011;40425;51.102;17.208;2023-05-07T03:19:06;5.10;;;3.80;;
40695;SDS011;40425;51.102;17.208;2023-05-07T03:24:07;5.70;;;3.20;;
40695;SDS011;40425;51.102;17.208;2023-05-07T03:29:08;4.87;;;3.80;;
40695;SDS011;40425;51.102;17.208;2023-05-07T03:34:09;4.70;;;3.00;;
40695;SDS011;40425;51.102;17.208;2023-05-07T03:39:09;3.37;;;1.97;;
40695;SDS011;40425;51.102;17.208;2023-05-07T03:44:10;4.10;;;2.33;;
40695;SDS011;40425;51.102;17.208;2023-05-07T03:49:11;4.20;;;1.77;;
40695;SDS011;40425;51.102;17.208;2023-05-07T03:54:12;3.43;;;2.10;;
40695;SDS011;40425;51.102;17.208;2023-05-07T03:59:13;4.20;;;2.40;;
40695;SDS011;40425;51.102;17.208;2023-05-07T04:04:14;5.47;;;2.33;;
40695;SDS011;40425;51.102;17.208;2023-05-07T04:09:16;6.33;;;2.60;;
40695;SDS011;40425;51.102;17.208;2023-05-07T04:14:16;4.03;;;2.13;;
40695;SDS011;40425;51.102;17.208;2023-05-07T04:19:17;3.77;;;1.73;;
40695;SDS011;40425;51.102;17.208;2023-05-07T04:24:18;5.23;;;2.23;;
40695;SDS011;40425;51.102;17.208;2023-05-07T04:29:19;5.03;;;2.73;;
40695;SDS011;40425;51.102;17.208;2023-05-07T04:34:21;11.00;;;3.23;;
40695;SDS011;40425;51.102;17.208;2023-05-07T04:39:21;3.50;;;2.27;;
40695;SDS011;40425;51.102;17.208;2023-05-07T04:44:22;4.50;;;2.40;;
40695;SDS011;40425;51.102;17.208;2023-05-07T04:49:23;3.17;;;2.67;;
40695;SDS011;40425;51.102;17.208;2023-05-07T04:54:24;3.67;;;2.07;;
40695;SDS011;40425;51.102;17.208;2023-05-07T04:59:26;3.43;;;2.00;;
40695;SDS011;40425;51.102;17.208;2023-05-07T05:04:27;3.77;;;3.13;;
40695;SDS011;40425;51.102;17.208;2023-05-07T05:09:28;3.83;;;3.30;;
40695;SDS011;40425;51.102;17.208;2023-05-07T05:14:29;3.73;;;2.70;;
40695;SDS011;40425;51.102;17.208;2023-05-07T05:19:30;6.03;;;3.43;;
40695;SDS011;40425;51.102;17.208;2023-05-07T05:24:31;3.90;;;3.00;;
40695;SDS011;40425;51.102;17.208;2023-05-07T05:29:32;4.33;;;3.43;;
40695;SDS011;40425;51.102;17.208;2023-05-07T05:34:32;3.93;;;3.13;;
40695;SDS011;40425;51.102;17.208;2023-05-07T05:39:33;4.80;;;3.10;;
40695;SDS011;40425;51.102;17.208;2023-05-07T05:44:34;2.83;;;2.10;;
40695;SDS011;40425;51.102;17.208;2023-05-07T05:49:35;4.97;;;3.37;;
40695;SDS011;40425;51.102;17.208;2023-05-07T05:54:36;4.80;;;2.63;;
40695;SDS011;40425;51.102;17.208;2023-05-07T05:59:37;6.43;;;1.93;;
40695;SDS011;40425;51.102;17.208;2023-05-07T06:04:38;3.97;;;1.63;;
40695;SDS011;40425;51.102;17.208;2023-05-07T06:09:38;3.43;;;1.47;;
40695;SDS011;40425;51.102;17.208;2023-05-07T06:14:39;2.10;;;1.30;;
40695;SDS011;40425;51.102;17.208;2023-05-07T06:19:42;2.07;;;1.23;;
40695;SDS011;40425;51.102;17.208;2023-05-07T06:24:43;3.60;;;2.57;;
40695;SDS011;40425;51.102;17.208;2023-05-07T06:29:44;3.90;;;3.30;;
40695;SDS011;40425;51.102;17.208;2023-05-07T06:34:45;3.40;;;1.67;;
40695;SDS011;40425;51.102;17.208;2023-05-07T06:39:46;5.27;;;1.93;;
40695;SDS011;40425;51.102;17.208;2023-05-07T06:44:46;2.30;;;1.50;;
40695;SDS011;40425;51.102;17.208;2023-05-07T06:49:47;3.17;;;1.60;;
40695;SDS011;40425;51.102;17.208;2023-05-07T06:54:48;2.47;;;1.53;;
40695;SDS011;40425;51.102;17.208;2023-05-07T06:59:49;1.90;;;1.37;;
40695;SDS011;40425;51.102;17.208;2023-05-07T07:04:50;2.00;;;1.40;;
40695;SDS011;40425;51.102;17.208;2023-05-07T07:09:51;2.17;;;1.20;;
40695;SDS011;40425;51.102;17.208;2023-05-07T07:14:52;4.35;;;1.77;;
40695;SDS011;40425;51.102;17.208;2023-05-07T07:19:52;3.85;;;1.33;;
40695;SDS011;40425;51.102;17.208;2023-05-07T07:24:53;2.13;;;1.40;;
40695;SDS011;40425;51.102;17.208;2023-05-07T07:29:54;2.45;;;1.77;;
40695;SDS011;40425;51.102;17.208;2023-05-07T07:34:55;5.10;;;2.08;;
40695;SDS011;40425;51.102;17.208;2023-05-07T07:39:56;7.07;;;2.40;;
40695;SDS011;40425;51.102;17.208;2023-05-07T07:44:57;3.95;;;3.03;;
40695;SDS011;40425;51.102;17.208;2023-05-07T07:49:58;4.93;;;3.00;;
40695;SDS011;40425;51.102;17.208;2023-05-07T07:54:58;3.90;;;2.20;;
40695;SDS011;40425;51.102;17.208;2023-05-07T07:59:59;3.80;;;2.93;;
40695;SDS011;40425;51.102;17.208;2023-05-07T08:05:00;3.90;;;2.33;;
40695;SDS011;40425;51.102;17.208;2023-05-07T08:10:01;2.83;;;2.17;;
40695;SDS011;40425;51.102;17.208;2023-05-07T08:15:03;2.63;;;2.13;;
40695;SDS011;40425;51.102;17.208;2023-05-07T08:20:05;3.03;;;2.20;;
40695;SDS011;40425;51.102;17.208;2023-05-07T08:25:07;5.83;;;2.67;;
40695;SDS011;40425;51.102;17.208;2023-05-07T08:30:08;4.00;;;3.03;;
40695;SDS011;40425;51.102;17.208;2023-05-07T08:35:09;4.83;;;4.07;;
40695;SDS011;40425;51.102;17.208;2023-05-07T08:40:10;3.50;;;2.27;;
40695;SDS011;40425;51.102;17.208;2023-05-07T08:45:12;4.67;;;3.60;;
40695;SDS011;40425;51.102;17.208;2023-05-07T08:50:13;4.30;;;3.17;;
40695;SDS011;40425;51.102;17.208;2023-05-07T08:55:14;3.75;;;2.80;;
40695;SDS011;40425;51.102;17.208;2023-05-07T09:00:16;3.35;;;2.53;;
40695;SDS011;40425;51.102;17.208;2023-05-07T09:05:17;2.97;;;2.22;;
40695;SDS011;40425;51.102;17.208;2023-05-07T09:10:18;3.08;;;1.50;;
40695;SDS011;40425;51.102;17.208;2023-05-07T09:15:21;3.23;;;1.80;;
40695;SDS011;40425;51.102;17.208;2023-05-07T09:20:22;4.88;;;2.50;;
40695;SDS011;40425;51.102;17.208;2023-05-07T09:25:30;3.85;;;2.85;;
40695;SDS011;40425;51.102;17.208;2023-05-07T09:30:32;4.95;;;3.22;;
40695;SDS011;40425;51.102;17.208;2023-05-07T09:35:34;3.80;;;2.80;;
40695;SDS011;40425;51.102;17.208;2023-05-07T09:40:35;4.68;;;2.90;;
40695;SDS011;40425;51.102;17.208;2023-05-07T09:45:36;4.38;;;2.97;;
40695;SDS011;40425;51.102;17.208;2023-05-07T09:50:45;3.28;;;2.70;;
40695;SDS011;40425;51.102;17.208;2023-05-07T09:55:52;2.00;;;1.42;;
40695;SDS011;40425;51.102;17.208;2023-05-07T10:00:53;2.58;;;2.08;;
40695;SDS011;40425;51.102;17.208;2023-05-07T10:05:56;2.78;;;2.30;;
40695;SDS011;40425;51.102;17.208;2023-05-07T10:10:59;3.03;;;1.67;;
40695;SDS011;40425;51.102;17.208;2023-05-07T10:16:00;3.20;;;1.92;;
40695;SDS011;40425;51.102;17.208;2023-05-07T10:21:03;5.82;;;1.70;;
40695;SDS011;40425;51.102;17.208;2023-05-07T10:26:08;1.60;;;0.90;;
40695;SDS011;40425;51.102;17.208;2023-05-07T10:36:29;5.00;;;1.60;;
40695;SDS011;40425;51.102;17.208;2023-05-07T10:41:31;3.33;;;1.95;;
40695;SDS011;40425;51.102;17.208;2023-05-07T10:46:32;2.53;;;1.60;;
40695;SDS011;40425;51.102;17.208;2023-05-07T10:51:35;2.38;;;1.25;;
40695;SDS011;40425;51.102;17.208;2023-05-07T10:56:37;2.15;;;1.35;;
40695;SDS011;40425;51.102;17.208;2023-05-07T11:01:52;2.30;;;1.52;;
40695;SDS011;40425;51.102;17.208;2023-05-07T11:12:07;2.45;;;1.33;;
40695;SDS011;40425;51.102;17.208;2023-05-07T11:17:08;2.97;;;1.42;;
40695;SDS011;40425;51.102;17.208;2023-05-07T11:27:33;1.48;;;0.70;;
40695;SDS011;40425;51.102;17.208;2023-05-07T11:32:34;1.70;;;0.75;;
40695;SDS011;40425;51.102;17.208;2023-05-07T11:37:35;2.65;;;1.17;;
40695;SDS011;40425;51.102;17.208;2023-05-07T11:42:37;2.03;;;1.00;;
40695;SDS011;40425;51.102;17.208;2023-05-07T11:47:42;1.63;;;0.73;;
40695;SDS011;40425;51.102;17.208;2023-05-07T11:52:50;2.20;;;1.27;;
40695;SDS011;40425;51.102;17.208;2023-05-07T11:57:52;1.98;;;1.23;;
40695;SDS011;40425;51.102;17.208;2023-05-07T12:02:53;1.60;;;1.25;;
40695;SDS011;40425;51.102;17.208;2023-05-07T12:07:57;2.83;;;1.60;;
40695;SDS011;40425;51.102;17.208;2023-05-07T12:12:58;1.65;;;0.90;;
40695;SDS011;40425;51.102;17.208;2023-05-07T12:17:58;3.35;;;1.05;;
40695;SDS011;40425;51.102;17.208;2023-05-07T12:22:59;2.53;;;1.85;;
40695;SDS011;40425;51.102;17.208;2023-05-07T12:28:02;4.25;;;1.60;;
40695;SDS011;40425;51.102;17.208;2023-05-07T12:33:04;2.55;;;1.73;;
40695;SDS011;40425;51.102;17.208;2023-05-07T12:38:10;8.25;;;1.50;;
40695;SDS011;40425;51.102;17.208;2023-05-07T12:43:15;1.90;;;1.38;;
40695;SDS011;40425;51.102;17.208;2023-05-07T12:48:25;3.40;;;1.77;;
40695;SDS011;40425;51.102;17.208;2023-05-07T12:53:27;2.28;;;1.52;;
40695;SDS011;40425;51.102;17.208;2023-05-07T12:58:29;3.60;;;2.10;;
40695;SDS011;40425;51.102;17.208;2023-05-07T13:03:32;3.90;;;2.10;;
40695;SDS011;40425;51.102;17.208;2023-05-07T13:08:35;5.00;;;1.23;;
40695;SDS011;40425;51.102;17.208;2023-05-07T13:13:46;1.65;;;0.90;;
40695;SDS011;40425;51.102;17.208;2023-05-07T13:18:46;2.25;;;1.45;;
40695;SDS011;40425;51.102;17.208;2023-05-07T13:23:47;2.47;;;1.35;;
40695;SDS011;40425;51.102;17.208;2023-05-07T13:28:48;2.70;;;1.45;;
40695;SDS011;40425;51.102;17.208;2023-05-07T13:33:49;1.88;;;1.10;;
40695;SDS011;40425;51.102;17.208;2023-05-07T13:38:50;3.33;;;1.67;;
40695;SDS011;40425;51.102;17.208;2023-05-07T13:43:52;2.58;;;1.73;;
40695;SDS011;40425;51.102;17.208;2023-05-07T13:48:53;2.78;;;1.45;;
40695;SDS011;40425;51.102;17.208;2023-05-07T13:53:55;4.13;;;1.40;;
40695;SDS011;40425;51.102;17.208;2023-05-07T13:58:56;2.13;;;1.45;;
40695;SDS011;40425;51.102;17.208;2023-05-07T14:03:58;2.38;;;1.20;;
40695;SDS011;40425;51.102;17.208;2023-05-07T14:09:00;2.65;;;1.15;;
40695;SDS011;40425;51.102;17.208;2023-05-07T14:14:01;1.85;;;1.27;;
40695;SDS011;40425;51.102;17.208;2023-05-07T14:19:02;2.80;;;1.80;;
40695;SDS011;40425;51.102;17.208;2023-05-07T14:24:05;2.15;;;1.38;;
40695;SDS011;40425;51.102;17.208;2023-05-07T14:29:08;2.28;;;1.38;;
40695;SDS011;40425;51.102;17.208;2023-05-07T14:34:10;3.03;;;1.83;;
40695;SDS011;40425;51.102;17.208;2023-05-07T14:39:11;1.73;;;1.00;;
40695;SDS011;40425;51.102;17.208;2023-05-07T14:44:12;2.88;;;1.48;;
40695;SDS011;40425;51.102;17.208;2023-05-07T14:49:13;2.60;;;1.63;;
40695;SDS011;40425;51.102;17.208;2023-05-07T14:54:17;2.58;;;1.40;;
40695;SDS011;40425;51.102;17.208;2023-05-07T14:59:19;3.78;;;1.45;;
40695;SDS011;40425;51.102;17.208;2023-05-07T15:04:21;3.03;;;1.55;;
40695;SDS011;40425;51.102;17.208;2023-05-07T15:09:23;2.28;;;1.58;;
40695;SDS011;40425;51.102;17.208;2023-05-07T15:14:25;4.80;;;1.90;;
40695;SDS011;40425;51.102;17.208;2023-05-07T15:19:27;3.10;;;2.20;;
40695;SDS011;40425;51.102;17.208;2023-05-07T15:24:29;3.03;;;2.20;;
40695;SDS011;40425;51.102;17.208;2023-05-07T15:29:31;3.30;;;1.95;;
40695;SDS011;40425;51.102;17.208;2023-05-07T15:34:33;4.68;;;2.50;;
40695;SDS011;40425;51.102;17.208;2023-05-07T15:39:34;3.45;;;2.00;;
40695;SDS011;40425;51.102;17.208;2023-05-07T15:44:37;6.95;;;2.10;;
40695;SDS011;40425;51.102;17.208;2023-05-07T15:49:42;4.35;;;1.63;;
40695;SDS011;40425;51.102;17.208;2023-05-07T15:54:44;2.47;;;1.90;;
40695;SDS011;40425;51.102;17.208;2023-05-07T15:59:49;2.90;;;1.65;;
40695;SDS011;40425;51.102;17.208;2023-05-07T16:04:51;2.38;;;1.52;;
40695;SDS011;40425;51.102;17.208;2023-05-07T16:09:52;2.13;;;1.58;;
40695;SDS011;40425;51.102;17.208;2023-05-07T16:14:53;2.63;;;2.25;;
40695;SDS011;40425;51.102;17.208;2023-05-07T16:19:56;4.07;;;2.50;;
40695;SDS011;40425;51.102;17.208;2023-05-07T16:24:58;2.83;;;1.80;;
40695;SDS011;40425;51.102;17.208;2023-05-07T16:30:01;1.90;;;1.60;;
40695;SDS011;40425;51.102;17.208;2023-05-07T16:35:02;3.17;;;1.92;;
40695;SDS011;40425;51.102;17.208;2023-05-07T16:40:03;5.82;;;2.72;;
40695;SDS011;40425;51.102;17.208;2023-05-07T16:45:06;2.78;;;1.88;;
40695;SDS011;40425;51.102;17.208;2023-05-07T16:50:09;3.33;;;2.13;;
40695;SDS011;40425;51.102;17.208;2023-05-07T16:55:11;3.20;;;2.50;;
40695;SDS011;40425;51.102;17.208;2023-05-07T17:00:13;3.55;;;2.47;;
40695;SDS011;40425;51.102;17.208;2023-05-07T17:05:16;3.70;;;3.05;;
40695;SDS011;40425;51.102;17.208;2023-05-07T17:10:18;3.15;;;2.55;;
40695;SDS011;40425;51.102;17.208;2023-05-07T17:15:19;7.30;;;3.28;;
40695;SDS011;40425;51.102;17.208;2023-05-07T17:20:21;5.72;;;2.70;;
40695;SDS011;40425;51.102;17.208;2023-05-07T17:25:22;4.63;;;3.15;;
40695;SDS011;40425;51.102;17.208;2023-05-07T17:30:24;6.03;;;3.35;;
40695;SDS011;40425;51.102;17.208;2023-05-07T17:35:26;4.47;;;3.08;;
40695;SDS011;40425;51.102;17.208;2023-05-07T17:40:30;4.90;;;2.90;;
40695;SDS011;40425;51.102;17.208;2023-05-07T17:45:31;4.93;;;3.05;;
40695;SDS011;40425;51.102;17.208;2023-05-07T17:50:32;10.00;;;4.00;;
40695;SDS011;40425;51.102;17.208;2023-05-07T17:55:33;9.98;;;4.53;;
40695;SDS011;40425;51.102;17.208;2023-05-07T18:00:39;4.90;;;3.35;;
40695;SDS011;40425;51.102;17.208;2023-05-07T18:05:40;6.00;;;3.90;;
40695;SDS011;40425;51.102;17.208;2023-05-07T18:10:41;13.18;;;6.95;;
40695;SDS011;40425;51.102;17.208;2023-05-07T18:15:43;4.65;;;2.97;;
40695;SDS011;40425;51.102;17.208;2023-05-07T18:20:48;4.18;;;2.88;;
40695;SDS011;40425;51.102;17.208;2023-05-07T18:25:52;3.17;;;2.38;;
40695;SDS011;40425;51.102;17.208;2023-05-07T18:30:53;2.92;;;2.63;;
40695;SDS011;40425;51.102;17.208;2023-05-07T18:35:55;4.05;;;2.65;;
40695;SDS011;40425;51.102;17.208;2023-05-07T18:40:59;3.55;;;2.72;;
40695;SDS011;40425;51.102;17.208;2023-05-07T18:46:02;4.88;;;2.65;;
40695;SDS011;40425;51.102;17.208;2023-05-07T18:51:03;5.55;;;2.30;;
40695;SDS011;40425;51.102;17.208;2023-05-07T18:56:12;4.38;;;3.42;;
40695;SDS011;40425;51.102;17.208;2023-05-07T19:01:13;6.93;;;4.80;;
40695;SDS011;40425;51.102;17.208;2023-05-07T19:06:15;7.93;;;4.88;;
40695;SDS011;40425;51.102;17.208;2023-05-07T19:11:17;8.80;;;4.60;;
40695;SDS011;40425;51.102;17.208;2023-05-07T19:16:19;7.97;;;3.92;;
40695;SDS011;40425;51.102;17.208;2023-05-07T19:21:20;6.40;;;3.40;;
40695;SDS011;40425;51.102;17.208;2023-05-07T19:26:22;6.07;;;3.00;;
40695;SDS011;40425;51.102;17.208;2023-05-07T19:31:24;4.32;;;3.08;;
40695;SDS011;40425;51.102;17.208;2023-05-07T19:36:26;3.28;;;2.67;;
40695;SDS011;40425;51.102;17.208;2023-05-07T19:41:29;4.45;;;3.22;;
40695;SDS011;40425;51.102;17.208;2023-05-07T19:46:31;5.32;;;3.47;;
40695;SDS011;40425;51.102;17.208;2023-05-07T19:51:34;3.45;;;2.63;;
40695;SDS011;40425;51.102;17.208;2023-05-07T19:56:36;4.25;;;2.75;;
40695;SDS011;40425;51.102;17.208;2023-05-07T20:01:41;4.43;;;3.10;;
40695;SDS011;40425;51.102;17.208;2023-05-07T20:06:42;4.43;;;2.72;;
40695;SDS011;40425;51.102;17.208;2023-05-07T20:11:43;4.88;;;4.18;;
40695;SDS011;40425;51.102;17.208;2023-05-07T20:16:43;5.82;;;4.50;;
40695;SDS011;40425;51.102;17.208;2023-05-07T20:21:44;7.65;;;4.38;;
40695;SDS011;40425;51.102;17.208;2023-05-07T20:26:45;6.27;;;4.17;;
40695;SDS011;40425;51.102;17.208;2023-05-07T20:31:46;3.15;;;2.50;;
40695;SDS011;40425;51.102;17.208;2023-05-07T20:36:47;2.35;;;1.88;;
40695;SDS011;40425;51.102;17.208;2023-05-07T20:41:48;2.42;;;1.65;;
40695;SDS011;40425;51.102;17.208;2023-05-07T20:46:49;3.23;;;1.90;;
40695;SDS011;40425;51.102;17.208;2023-05-07T20:51:51;2.72;;;1.20;;
40695;SDS011;40425;51.102;17.208;2023-05-07T20:56:55;1.80;;;1.10;;
40695;SDS011;40425;51.102;17.208;2023-05-07T21:01:57;4.30;;;1.50;;
40695;SDS011;40425;51.102;17.208;2023-05-07T21:06:59;3.07;;;1.43;;
40695;SDS011;40425;51.102;17.208;2023-05-07T21:12:02;4.03;;;1.93;;
40695;SDS011;40425;51.102;17.208;2023-05-07T21:17:04;6.20;;;1.40;;
40695;SDS011;40425;51.102;17.208;2023-05-07T21:22:06;2.40;;;1.60;;
40695;SDS011;40425;51.102;17.208;2023-05-07T21:27:07;2.67;;;1.57;;
40695;SDS011;40425;51.102;17.208;2023-05-07T21:32:08;4.10;;;1.67;;
40695;SDS011;40425;51.102;17.208;2023-05-07T21:37:09;3.07;;;1.60;;
40695;SDS011;40425;51.102;17.208;2023-05-07T21:42:09;5.57;;;1.77;;
40695;SDS011;40425;51.102;17.208;2023-05-07T21:47:10;4.20;;;2.10;;
40695;SDS011;40425;51.102;17.208;2023-05-07T21:52:12;2.60;;;1.80;;
40695;SDS011;40425;51.102;17.208;2023-05-07T21:57:17;3.57;;;2.57;;
40695;SDS011;40425;51.102;17.208;2023-05-07T22:02:18;3.50;;;2.23;;
40695;SDS011;40425;51.102;17.208;2023-05-07T22:07:19;3.33;;;2.20;;
40695;SDS011;40425;51.102;17.208;2023-05-07T22:12:20;5.23;;;2.53;;
40695;SDS011;40425;51.102;17.208;2023-05-07T22:17:20;3.87;;;2.17;;
40695;SDS011;40425;51.102;17.208;2023-05-07T22:22:23;3.43;;;2.30;;
40695;SDS011;40425;51.102;17.208;2023-05-07T22:27:24;3.93;;;2.13;;
40695;SDS011;40425;51.102;17.208;2023-05-07T22:32:25;5.83;;;3.80;;
40695;SDS011;40425;51.102;17.208;2023-05-07T22:37:25;6.13;;;4.07;;
40695;SDS011;40425;51.102;17.208;2023-05-07T22:42:26;3.23;;;2.60;;
40695;SDS011;40425;51.102;17.208;2023-05-07T22:47:28;4.40;;;2.40;;
40695;SDS011;40425;51.102;17.208;2023-05-07T22:52:30;5.57;;;2.53;;
40695;SDS011;40425;51.102;17.208;2023-05-07T22:57:31;4.13;;;2.60;;
40695;SDS011;40425;51.102;17.208;2023-05-07T23:02:31;9.77;;;3.30;;
40695;SDS011;40425;51.102;17.208;2023-05-07T23:07:32;4.83;;;3.13;;
40695;SDS011;40425;51.102;17.208;2023-05-07T23:12:33;8.47;;;3.57;;
40695;SDS011;40425;51.102;17.208;2023-05-07T23:17:34;5.07;;;3.77;;
40695;SDS011;40425;51.102;17.208;2023-05-07T23:22:35;6.83;;;4.63;;
40695;SDS011;40425;51.102;17.208;2023-05-07T23:27:36;7.67;;;4.70;;
40695;SDS011;40425;51.102;17.208;2023-05-07T23:32:37;7.87;;;5.13;;
40695;SDS011;40425;51.102;17.208;2023-05-07T23:37:38;6.97;;;5.00;;
40695;SDS011;40425;51.102;17.208;2023-05-07T23:42:38;9.03;;;5.23;;
40695;SDS011;40425;51.102;17.208;2023-05-07T23:47:39;8.57;;;6.30;;
40695;SDS011;40425;51.102;17.208;2023-05-07T23:52:41;5.70;;;4.40;;
40695;SDS011;40425;51.102;17.208;2023-05-07T23:57:41;8.57;;;5.13;;
